sensor_id;sensor_type;location;lat;lon;timestamp;P1;durP1;ratioP1;P2;durP2;ratioP2
69244;SDS011;56357;52.304;4.870;2023-05-16T00:01:23;7.78;;;0.93;;
69244;SDS011;56357;52.304;4.870;2023-05-16T00:03:51;7.35;;;0.77;;
69244;SDS011;56357;52.304;4.870;2023-05-16T00:06:17;6.97;;;1.07;;
69244;SDS011;56357;52.304;4.870;2023-05-16T00:08:44;8.15;;;1.30;;
69244;SDS011;56357;52.304;4.870;2023-05-16T00:11:10;8.00;;;0.90;;
69244;SDS011;56357;52.304;4.870;2023-05-16T00:13:37;6.63;;;0.70;;
69244;SDS011;56357;52.304;4.870;2023-05-16T00:16:06;7.63;;;1.30;;
69244;SDS011;56357;52.304;4.870;2023-05-16T00:18:32;10.67;;;1.07;;
69244;SDS011;56357;52.304;4.870;2023-05-16T00:21:01;9.15;;;1.08;;
69244;SDS011;56357;52.304;4.870;2023-05-16T00:23:29;6.75;;;0.70;;
69244;SDS011;56357;52.304;4.870;2023-05-16T00:25:56;8.75;;;0.90;;
69244;SDS011;56357;52.304;4.870;2023-05-16T00:28:22;9.35;;;1.00;;
69244;SDS011;56357;52.304;4.870;2023-05-16T00:30:49;8.47;;;0.93;;
69244;SDS011;56357;52.304;4.870;2023-05-16T00:33:15;8.65;;;0.90;;
69244;SDS011;56357;52.304;4.870;2023-05-16T00:35:41;7.82;;;1.35;;
69244;SDS011;56357;52.304;4.870;2023-05-16T00:38:08;9.30;;;1.23;;
69244;SDS011;56357;52.304;4.870;2023-05-16T00:40:35;8.40;;;0.98;;
69244;SDS011;56357;52.304;4.870;2023-05-16T00:43:01;11.67;;;1.20;;
69244;SDS011;56357;52.304;4.870;2023-05-16T00:45:27;12.75;;;1.85;;
69244;SDS011;56357;52.304;4.870;2023-05-16T00:47:54;8.35;;;0.95;;
69244;SDS011;56357;52.304;4.870;2023-05-16T00:50:20;6.10;;;0.70;;
69244;SDS011;56357;52.304;4.870;2023-05-16T00:52:47;11.02;;;1.45;;
69244;SDS011;56357;52.304;4.870;2023-05-16T00:55:13;10.30;;;0.93;;
69244;SDS011;56357;52.304;4.870;2023-05-16T00:57:40;10.82;;;1.20;;
69244;SDS011;56357;52.304;4.870;2023-05-16T01:00:07;6.95;;;1.00;;
69244;SDS011;56357;52.304;4.870;2023-05-16T01:02:34;7.82;;;0.73;;
69244;SDS011;56357;52.304;4.870;2023-05-16T01:05:02;8.65;;;0.95;;
69244;SDS011;56357;52.304;4.870;2023-05-16T01:07:31;10.63;;;1.00;;
69244;SDS011;56357;52.304;4.870;2023-05-16T01:09:57;7.25;;;0.75;;
69244;SDS011;56357;52.304;4.870;2023-05-16T01:15:29;8.57;;;0.93;;
69244;SDS011;56357;52.304;4.870;2023-05-16T01:21:15;8.63;;;1.27;;
69244;SDS011;56357;52.304;4.870;2023-05-16T01:23:52;5.88;;;0.73;;
69244;SDS011;56357;52.304;4.870;2023-05-16T01:26:29;7.45;;;1.13;;
69244;SDS011;56357;52.304;4.870;2023-05-16T01:28:56;7.53;;;0.70;;
69244;SDS011;56357;52.304;4.870;2023-05-16T01:31:23;7.07;;;0.70;;
69244;SDS011;56357;52.304;4.870;2023-05-16T01:33:50;9.53;;;0.93;;
69244;SDS011;56357;52.304;4.870;2023-05-16T01:36:22;9.45;;;0.95;;
69244;SDS011;56357;52.304;4.870;2023-05-16T01:44:15;10.98;;;0.90;;
69244;SDS011;56357;52.304;4.870;2023-05-16T01:46:46;8.33;;;0.70;;
69244;SDS011;56357;52.304;4.870;2023-05-16T01:49:30;6.22;;;1.00;;
69244;SDS011;56357;52.304;4.870;2023-05-16T01:52:07;6.45;;;0.65;;
69244;SDS011;56357;52.304;4.870;2023-05-16T01:54:41;7.43;;;0.70;;
69244;SDS011;56357;52.304;4.870;2023-05-16T01:57:10;7.97;;;1.23;;
69244;SDS011;56357;52.304;4.870;2023-05-16T01:59:40;7.63;;;0.60;;
69244;SDS011;56357;52.304;4.870;2023-05-16T02:02:07;7.20;;;0.80;;
69244;SDS011;56357;52.304;4.870;2023-05-16T02:04:34;6.47;;;1.05;;
69244;SDS011;56357;52.304;4.870;2023-05-16T02:07:01;6.97;;;1.15;;
69244;SDS011;56357;52.304;4.870;2023-05-16T02:09:28;9.52;;;1.00;;
69244;SDS011;56357;52.304;4.870;2023-05-16T02:11:54;7.30;;;0.90;;
69244;SDS011;56357;52.304;4.870;2023-05-16T02:14:21;10.27;;;0.90;;
69244;SDS011;56357;52.304;4.870;2023-05-16T02:16:49;5.97;;;0.80;;
69244;SDS011;56357;52.304;4.870;2023-05-16T02:19:15;5.82;;;0.77;;
69244;SDS011;56357;52.304;4.870;2023-05-16T02:21:42;7.05;;;0.75;;
69244;SDS011;56357;52.304;4.870;2023-05-16T02:24:08;6.00;;;0.63;;
69244;SDS011;56357;52.304;4.870;2023-05-16T02:26:35;6.28;;;0.68;;
69244;SDS011;56357;52.304;4.870;2023-05-16T02:29:01;9.43;;;1.20;;
69244;SDS011;56357;52.304;4.870;2023-05-16T02:31:28;8.10;;;0.75;;
69244;SDS011;56357;52.304;4.870;2023-05-16T02:33:56;7.30;;;0.70;;
69244;SDS011;56357;52.304;4.870;2023-05-16T02:36:24;8.07;;;0.80;;
69244;SDS011;56357;52.304;4.870;2023-05-16T02:38:50;8.13;;;0.80;;
69244;SDS011;56357;52.304;4.870;2023-05-16T02:41:17;12.50;;;1.05;;
69244;SDS011;56357;52.304;4.870;2023-05-16T02:43:46;6.50;;;0.70;;
69244;SDS011;56357;52.304;4.870;2023-05-16T02:46:22;8.07;;;0.95;;
69244;SDS011;56357;52.304;4.870;2023-05-16T02:48:54;7.43;;;0.60;;
69244;SDS011;56357;52.304;4.870;2023-05-16T02:51:21;8.27;;;1.17;;
69244;SDS011;56357;52.304;4.870;2023-05-16T02:53:49;8.43;;;1.13;;
69244;SDS011;56357;52.304;4.870;2023-05-16T02:56:16;6.28;;;0.77;;
69244;SDS011;56357;52.304;4.870;2023-05-16T02:58:45;8.35;;;0.90;;
69244;SDS011;56357;52.304;4.870;2023-05-16T03:01:13;6.50;;;0.80;;
69244;SDS011;56357;52.304;4.870;2023-05-16T03:03:40;8.13;;;0.85;;
69244;SDS011;56357;52.304;4.870;2023-05-16T03:06:06;9.35;;;0.70;;
69244;SDS011;56357;52.304;4.870;2023-05-16T03:08:33;7.82;;;0.80;;
69244;SDS011;56357;52.304;4.870;2023-05-16T03:11:00;8.70;;;0.95;;
69244;SDS011;56357;52.304;4.870;2023-05-16T03:13:26;4.30;;;0.57;;
69244;SDS011;56357;52.304;4.870;2023-05-16T03:15:54;7.25;;;0.90;;
69244;SDS011;56357;52.304;4.870;2023-05-16T03:18:20;5.88;;;0.90;;
69244;SDS011;56357;52.304;4.870;2023-05-16T03:20:47;8.57;;;0.70;;
69244;SDS011;56357;52.304;4.870;2023-05-16T03:23:13;5.55;;;0.70;;
69244;SDS011;56357;52.304;4.870;2023-05-16T03:25:40;6.13;;;0.73;;
69244;SDS011;56357;52.304;4.870;2023-05-16T03:28:07;5.93;;;0.82;;
69244;SDS011;56357;52.304;4.870;2023-05-16T03:30:34;7.43;;;1.27;;
69244;SDS011;56357;52.304;4.870;2023-05-16T03:33:00;5.20;;;1.00;;
69244;SDS011;56357;52.304;4.870;2023-05-16T03:35:27;8.13;;;0.95;;
69244;SDS011;56357;52.304;4.870;2023-05-16T03:37:54;8.60;;;0.83;;
69244;SDS011;56357;52.304;4.870;2023-05-16T03:40:21;11.30;;;0.80;;
69244;SDS011;56357;52.304;4.870;2023-05-16T03:42:47;6.50;;;1.27;;
69244;SDS011;56357;52.304;4.870;2023-05-16T03:45:14;8.93;;;1.13;;
69244;SDS011;56357;52.304;4.870;2023-05-16T03:47:40;7.55;;;1.08;;
69244;SDS011;56357;52.304;4.870;2023-05-16T03:50:07;5.67;;;0.77;;
69244;SDS011;56357;52.304;4.870;2023-05-16T03:52:34;5.47;;;0.98;;
69244;SDS011;56357;52.304;4.870;2023-05-16T03:55:01;7.07;;;0.75;;
69244;SDS011;56357;52.304;4.870;2023-05-16T03:57:30;9.18;;;1.17;;
69244;SDS011;56357;52.304;4.870;2023-05-16T03:59:57;10.35;;;0.90;;
69244;SDS011;56357;52.304;4.870;2023-05-16T04:02:23;6.40;;;0.77;;
69244;SDS011;56357;52.304;4.870;2023-05-16T04:04:50;7.43;;;1.05;;
69244;SDS011;56357;52.304;4.870;2023-05-16T04:07:16;8.18;;;0.90;;
69244;SDS011;56357;52.304;4.870;2023-05-16T04:09:43;5.35;;;1.00;;
69244;SDS011;56357;52.304;4.870;2023-05-16T04:12:09;8.90;;;1.13;;
69244;SDS011;56357;52.304;4.870;2023-05-16T04:14:36;7.40;;;0.90;;
69244;SDS011;56357;52.304;4.870;2023-05-16T04:17:03;6.22;;;0.88;;
69244;SDS011;56357;52.304;4.870;2023-05-16T04:19:29;6.82;;;1.13;;
69244;SDS011;56357;52.304;4.870;2023-05-16T04:21:56;9.95;;;1.27;;
69244;SDS011;56357;52.304;4.870;2023-05-16T04:24:22;6.18;;;0.80;;
69244;SDS011;56357;52.304;4.870;2023-05-16T04:26:52;9.20;;;0.80;;
69244;SDS011;56357;52.304;4.870;2023-05-16T04:29:19;6.90;;;0.80;;
69244;SDS011;56357;52.304;4.870;2023-05-16T04:31:46;6.60;;;0.93;;
69244;SDS011;56357;52.304;4.870;2023-05-16T04:34:12;8.27;;;0.75;;
69244;SDS011;56357;52.304;4.870;2023-05-16T04:36:39;6.47;;;0.88;;
69244;SDS011;56357;52.304;4.870;2023-05-16T04:39:06;8.07;;;0.70;;
69244;SDS011;56357;52.304;4.870;2023-05-16T04:41:33;7.72;;;0.82;;
69244;SDS011;56357;52.304;4.870;2023-05-16T04:44:00;10.65;;;1.00;;
69244;SDS011;56357;52.304;4.870;2023-05-16T04:46:28;7.03;;;0.80;;
69244;SDS011;56357;52.304;4.870;2023-05-16T04:48:56;7.57;;;0.90;;
69244;SDS011;56357;52.304;4.870;2023-05-16T04:51:22;11.60;;;0.87;;
69244;SDS011;56357;52.304;4.870;2023-05-16T04:53:49;6.78;;;0.70;;
69244;SDS011;56357;52.304;4.870;2023-05-16T04:56:15;6.32;;;1.05;;
69244;SDS011;56357;52.304;4.870;2023-05-16T04:58:41;5.63;;;0.52;;
69244;SDS011;56357;52.304;4.870;2023-05-16T05:01:08;4.50;;;0.85;;
69244;SDS011;56357;52.304;4.870;2023-05-16T05:03:34;8.70;;;0.60;;
69244;SDS011;56357;52.304;4.870;2023-05-16T05:06:01;4.50;;;0.60;;
69244;SDS011;56357;52.304;4.870;2023-05-16T05:08:28;6.03;;;0.68;;
69244;SDS011;56357;52.304;4.870;2023-05-16T05:10:55;5.95;;;0.85;;
69244;SDS011;56357;52.304;4.870;2023-05-16T05:13:21;6.20;;;0.80;;
69244;SDS011;56357;52.304;4.870;2023-05-16T05:15:48;4.97;;;0.53;;
69244;SDS011;56357;52.304;4.870;2023-05-16T05:18:16;11.80;;;0.80;;
69244;SDS011;56357;52.304;4.870;2023-05-16T05:20:43;9.95;;;1.52;;
69244;SDS011;56357;52.304;4.870;2023-05-16T05:23:09;7.40;;;0.85;;
69244;SDS011;56357;52.304;4.870;2023-05-16T05:25:37;8.77;;;0.88;;
69244;SDS011;56357;52.304;4.870;2023-05-16T05:28:04;11.63;;;1.07;;
69244;SDS011;56357;52.304;4.870;2023-05-16T05:30:31;9.07;;;0.80;;
69244;SDS011;56357;52.304;4.870;2023-05-16T05:32:57;7.07;;;1.35;;
69244;SDS011;56357;52.304;4.870;2023-05-16T05:35:24;11.75;;;1.50;;
69244;SDS011;56357;52.304;4.870;2023-05-16T05:37:51;8.23;;;1.02;;
69244;SDS011;56357;52.304;4.870;2023-05-16T05:40:17;8.70;;;0.87;;
69244;SDS011;56357;52.304;4.870;2023-05-16T05:42:43;29.15;;;3.65;;
69244;SDS011;56357;52.304;4.870;2023-05-16T05:45:10;24.20;;;3.03;;
69244;SDS011;56357;52.304;4.870;2023-05-16T05:47:36;13.18;;;1.90;;
69244;SDS011;56357;52.304;4.870;2023-05-16T05:50:03;27.45;;;3.38;;
69244;SDS011;56357;52.304;4.870;2023-05-16T05:52:31;20.07;;;3.33;;
69244;SDS011;56357;52.304;4.870;2023-05-16T05:54:57;18.83;;;2.30;;
69244;SDS011;56357;52.304;4.870;2023-05-16T05:57:24;14.20;;;2.10;;
69244;SDS011;56357;52.304;4.870;2023-05-16T05:59:50;18.10;;;2.45;;
69244;SDS011;56357;52.304;4.870;2023-05-16T06:02:17;17.35;;;3.20;;
69244;SDS011;56357;52.304;4.870;2023-05-16T06:04:45;15.57;;;2.90;;
69244;SDS011;56357;52.304;4.870;2023-05-16T06:07:11;15.48;;;1.77;;
69244;SDS011;56357;52.304;4.870;2023-05-16T06:09:40;14.75;;;1.92;;
69244;SDS011;56357;52.304;4.870;2023-05-16T06:12:07;13.20;;;2.15;;
69244;SDS011;56357;52.304;4.870;2023-05-16T06:14:34;13.30;;;2.22;;
69244;SDS011;56357;52.304;4.870;2023-05-16T06:17:00;17.90;;;2.03;;
69244;SDS011;56357;52.304;4.870;2023-05-16T06:19:27;14.68;;;1.73;;
69244;SDS011;56357;52.304;4.870;2023-05-16T06:21:53;13.95;;;1.85;;
69244;SDS011;56357;52.304;4.870;2023-05-16T06:24:20;14.20;;;1.80;;
69244;SDS011;56357;52.304;4.870;2023-05-16T06:26:46;10.85;;;1.73;;
69244;SDS011;56357;52.304;4.870;2023-05-16T06:29:14;11.43;;;1.60;;
69244;SDS011;56357;52.304;4.870;2023-05-16T06:31:41;11.63;;;1.20;;
69244;SDS011;56357;52.304;4.870;2023-05-16T06:34:07;10.23;;;2.13;;
69244;SDS011;56357;52.304;4.870;2023-05-16T06:36:34;12.45;;;1.40;;
69244;SDS011;56357;52.304;4.870;2023-05-16T06:39:00;12.18;;;1.40;;
69244;SDS011;56357;52.304;4.870;2023-05-16T06:41:28;12.03;;;1.33;;
69244;SDS011;56357;52.304;4.870;2023-05-16T06:43:55;14.82;;;1.38;;
69244;SDS011;56357;52.304;4.870;2023-05-16T06:46:22;12.40;;;1.77;;
69244;SDS011;56357;52.304;4.870;2023-05-16T06:48:48;10.35;;;1.27;;
69244;SDS011;56357;52.304;4.870;2023-05-16T06:51:15;9.35;;;1.20;;
69244;SDS011;56357;52.304;4.870;2023-05-16T06:53:42;10.67;;;1.20;;
69244;SDS011;56357;52.304;4.870;2023-05-16T06:56:08;7.78;;;1.20;;
69244;SDS011;56357;52.304;4.870;2023-05-16T06:58:35;9.60;;;1.33;;
69244;SDS011;56357;52.304;4.870;2023-05-16T07:01:01;13.15;;;1.42;;
69244;SDS011;56357;52.304;4.870;2023-05-16T07:03:28;9.85;;;1.27;;
69244;SDS011;56357;52.304;4.870;2023-05-16T07:05:55;10.10;;;1.30;;
69244;SDS011;56357;52.304;4.870;2023-05-16T07:08:22;11.15;;;1.10;;
69244;SDS011;56357;52.304;4.870;2023-05-16T07:10:49;6.47;;;0.90;;
69244;SDS011;56357;52.304;4.870;2023-05-16T07:13:16;11.85;;;1.10;;
69244;SDS011;56357;52.304;4.870;2023-05-16T07:15:42;8.68;;;1.05;;
69244;SDS011;56357;52.304;4.870;2023-05-16T07:18:08;8.90;;;0.63;;
69244;SDS011;56357;52.304;4.870;2023-05-16T07:20:35;10.80;;;0.85;;
69244;SDS011;56357;52.304;4.870;2023-05-16T07:23:01;9.18;;;1.02;;
69244;SDS011;56357;52.304;4.870;2023-05-16T07:25:28;8.02;;;0.80;;
69244;SDS011;56357;52.304;4.870;2023-05-16T07:27:54;10.73;;;1.50;;
69244;SDS011;56357;52.304;4.870;2023-05-16T07:30:21;6.77;;;1.10;;
69244;SDS011;56357;52.304;4.870;2023-05-16T07:32:48;8.77;;;0.95;;
69244;SDS011;56357;52.304;4.870;2023-05-16T07:35:14;9.73;;;0.90;;
69244;SDS011;56357;52.304;4.870;2023-05-16T07:37:41;6.90;;;0.90;;
69244;SDS011;56357;52.304;4.870;2023-05-16T07:40:08;8.15;;;0.93;;
69244;SDS011;56357;52.304;4.870;2023-05-16T07:42:35;7.30;;;0.80;;
69244;SDS011;56357;52.304;4.870;2023-05-16T07:45:02;6.82;;;0.93;;
69244;SDS011;56357;52.304;4.870;2023-05-16T07:47:30;7.68;;;0.88;;
69244;SDS011;56357;52.304;4.870;2023-05-16T07:49:57;25.75;;;1.92;;
69244;SDS011;56357;52.304;4.870;2023-05-16T07:52:23;22.20;;;2.10;;
69244;SDS011;56357;52.304;4.870;2023-05-16T07:54:50;14.90;;;1.57;;
69244;SDS011;56357;52.304;4.870;2023-05-16T07:57:16;14.05;;;1.63;;
69244;SDS011;56357;52.304;4.870;2023-05-16T07:59:43;19.33;;;1.38;;
69244;SDS011;56357;52.304;4.870;2023-05-16T08:02:10;14.45;;;1.08;;
69244;SDS011;56357;52.304;4.870;2023-05-16T08:04:37;9.57;;;1.00;;
69244;SDS011;56357;52.304;4.870;2023-05-16T08:07:04;16.50;;;1.93;;
69244;SDS011;56357;52.304;4.870;2023-05-16T08:09:30;10.57;;;0.80;;
69244;SDS011;56357;52.304;4.870;2023-05-16T08:11:57;9.27;;;0.93;;
69244;SDS011;56357;52.304;4.870;2023-05-16T08:14:27;10.38;;;1.65;;
69244;SDS011;56357;52.304;4.870;2023-05-16T08:16:56;11.70;;;1.55;;
69244;SDS011;56357;52.304;4.870;2023-05-16T08:19:26;8.20;;;0.80;;
69244;SDS011;56357;52.304;4.870;2023-05-16T08:21:53;6.97;;;1.00;;
69244;SDS011;56357;52.304;4.870;2023-05-16T08:24:20;8.52;;;1.00;;
69244;SDS011;56357;52.304;4.870;2023-05-16T08:26:46;11.63;;;1.00;;
69244;SDS011;56357;52.304;4.870;2023-05-16T08:29:13;8.10;;;0.98;;
69244;SDS011;56357;52.304;4.870;2023-05-16T08:31:39;7.43;;;0.70;;
69244;SDS011;56357;52.304;4.870;2023-05-16T08:34:06;12.52;;;0.93;;
69244;SDS011;56357;52.304;4.870;2023-05-16T08:36:33;9.20;;;0.93;;
69244;SDS011;56357;52.304;4.870;2023-05-16T08:39:00;6.28;;;0.77;;
69244;SDS011;56357;52.304;4.870;2023-05-16T08:41:27;8.50;;;1.13;;
69244;SDS011;56357;52.304;4.870;2023-05-16T08:43:54;9.30;;;0.87;;
69244;SDS011;56357;52.304;4.870;2023-05-16T08:46:21;7.72;;;0.82;;
69244;SDS011;56357;52.304;4.870;2023-05-16T08:48:51;7.65;;;0.60;;
69244;SDS011;56357;52.304;4.870;2023-05-16T08:51:19;9.25;;;0.82;;
69244;SDS011;56357;52.304;4.870;2023-05-16T08:53:49;7.78;;;0.57;;
69244;SDS011;56357;52.304;4.870;2023-05-16T08:56:23;8.47;;;0.60;;
69244;SDS011;56357;52.304;4.870;2023-05-16T08:58:50;7.57;;;0.57;;
69244;SDS011;56357;52.304;4.870;2023-05-16T09:01:19;6.68;;;0.70;;
69244;SDS011;56357;52.304;4.870;2023-05-16T09:03:48;6.03;;;0.60;;
69244;SDS011;56357;52.304;4.870;2023-05-16T09:06:15;8.15;;;0.80;;
69244;SDS011;56357;52.304;4.870;2023-05-16T09:08:42;5.87;;;0.60;;
69244;SDS011;56357;52.304;4.870;2023-05-16T09:11:09;4.55;;;0.57;;
69244;SDS011;56357;52.304;4.870;2023-05-16T09:13:37;6.95;;;0.65;;
69244;SDS011;56357;52.304;4.870;2023-05-16T09:16:08;6.68;;;0.60;;
69244;SDS011;56357;52.304;4.870;2023-05-16T09:18:38;5.13;;;1.10;;
69244;SDS011;56357;52.304;4.870;2023-05-16T09:21:08;4.97;;;0.70;;
69244;SDS011;56357;52.304;4.870;2023-05-16T09:23:35;5.10;;;0.75;;
69244;SDS011;56357;52.304;4.870;2023-05-16T09:26:04;5.93;;;0.80;;
69244;SDS011;56357;52.304;4.870;2023-05-16T09:28:32;5.00;;;0.60;;
69244;SDS011;56357;52.304;4.870;2023-05-16T09:31:01;5.55;;;0.73;;
69244;SDS011;56357;52.304;4.870;2023-05-16T09:33:28;4.87;;;0.77;;
69244;SDS011;56357;52.304;4.870;2023-05-16T09:35:59;5.88;;;0.60;;
69244;SDS011;56357;52.304;4.870;2023-05-16T09:38:26;4.82;;;0.60;;
69244;SDS011;56357;52.304;4.870;2023-05-16T09:40:54;4.60;;;0.80;;
69244;SDS011;56357;52.304;4.870;2023-05-16T09:43:29;7.85;;;0.88;;
69244;SDS011;56357;52.304;4.870;2023-05-16T09:45:57;6.97;;;1.13;;
69244;SDS011;56357;52.304;4.870;2023-05-16T09:48:25;6.93;;;1.08;;
69244;SDS011;56357;52.304;4.870;2023-05-16T09:50:52;5.57;;;0.75;;
69244;SDS011;56357;52.304;4.870;2023-05-16T09:53:24;6.25;;;1.10;;
69244;SDS011;56357;52.304;4.870;2023-05-16T09:55:59;3.80;;;0.80;;
69244;SDS011;56357;52.304;4.870;2023-05-16T09:58:31;5.20;;;0.70;;
69244;SDS011;56357;52.304;4.870;2023-05-16T10:00:58;4.57;;;0.57;;
69244;SDS011;56357;52.304;4.870;2023-05-16T10:03:26;4.25;;;0.60;;
69244;SDS011;56357;52.304;4.870;2023-05-16T10:05:54;5.75;;;0.80;;
69244;SDS011;56357;52.304;4.870;2023-05-16T10:08:21;4.82;;;0.50;;
69244;SDS011;56357;52.304;4.870;2023-05-16T10:10:50;5.03;;;0.80;;
69244;SDS011;56357;52.304;4.870;2023-05-16T10:13:19;4.47;;;0.50;;
69244;SDS011;56357;52.304;4.870;2023-05-16T10:15:47;4.38;;;0.60;;
69244;SDS011;56357;52.304;4.870;2023-05-16T10:18:20;5.60;;;0.60;;
69244;SDS011;56357;52.304;4.870;2023-05-16T10:20:48;4.88;;;0.55;;
69244;SDS011;56357;52.304;4.870;2023-05-16T10:23:18;4.97;;;0.60;;
69244;SDS011;56357;52.304;4.870;2023-05-16T10:25:47;4.78;;;0.60;;
69244;SDS011;56357;52.304;4.870;2023-05-16T10:28:14;6.03;;;0.88;;
69244;SDS011;56357;52.304;4.870;2023-05-16T10:30:42;4.88;;;0.60;;
69244;SDS011;56357;52.304;4.870;2023-05-16T10:33:11;5.60;;;0.90;;
69244;SDS011;56357;52.304;4.870;2023-05-16T10:35:39;5.00;;;0.50;;
69244;SDS011;56357;52.304;4.870;2023-05-16T10:38:06;3.42;;;0.47;;
69244;SDS011;56357;52.304;4.870;2023-05-16T10:40:34;3.70;;;0.40;;
69244;SDS011;56357;52.304;4.870;2023-05-16T10:43:04;4.55;;;0.73;;
69244;SDS011;56357;52.304;4.870;2023-05-16T10:45:32;8.23;;;0.63;;
69244;SDS011;56357;52.304;4.870;2023-05-16T10:48:02;3.67;;;0.50;;
69244;SDS011;56357;52.304;4.870;2023-05-16T10:56:06;5.18;;;0.77;;
69244;SDS011;56357;52.304;4.870;2023-05-16T11:01:19;4.90;;;0.60;;
69244;SDS011;56357;52.304;4.870;2023-05-16T11:06:22;6.65;;;0.73;;
69244;SDS011;56357;52.304;4.870;2023-05-16T11:09:40;5.10;;;0.70;;
69244;SDS011;56357;52.304;4.870;2023-05-16T11:14:25;3.43;;;0.63;;
69244;SDS011;56357;52.304;4.870;2023-05-16T11:19:34;6.53;;;0.60;;
69244;SDS011;56357;52.304;4.870;2023-05-16T11:24:36;5.30;;;0.52;;
69244;SDS011;56357;52.304;4.870;2023-05-16T11:27:04;5.73;;;0.80;;
69244;SDS011;56357;52.304;4.870;2023-05-16T11:29:31;4.40;;;0.60;;
69244;SDS011;56357;52.304;4.870;2023-05-16T11:32:04;6.22;;;0.60;;
69244;SDS011;56357;52.304;4.870;2023-05-16T11:34:30;5.25;;;0.73;;
69244;SDS011;56357;52.304;4.870;2023-05-16T11:37:01;3.63;;;0.57;;
69244;SDS011;56357;52.304;4.870;2023-05-16T11:39:29;4.17;;;0.70;;
69244;SDS011;56357;52.304;4.870;2023-05-16T11:41:57;5.13;;;0.60;;
69244;SDS011;56357;52.304;4.870;2023-05-16T11:44:23;7.10;;;0.70;;
69244;SDS011;56357;52.304;4.870;2023-05-16T11:46:50;5.43;;;0.40;;
69244;SDS011;56357;52.304;4.870;2023-05-16T11:49:16;4.30;;;0.85;;
69244;SDS011;56357;52.304;4.870;2023-05-16T11:51:43;4.60;;;0.50;;
69244;SDS011;56357;52.304;4.870;2023-05-16T11:54:09;4.97;;;0.50;;
69244;SDS011;56357;52.304;4.870;2023-05-16T11:56:37;5.10;;;0.63;;
69244;SDS011;56357;52.304;4.870;2023-05-16T11:59:04;5.00;;;0.68;;
69244;SDS011;56357;52.304;4.870;2023-05-16T12:01:35;5.75;;;0.77;;
69244;SDS011;56357;52.304;4.870;2023-05-16T12:04:09;4.00;;;0.70;;
69244;SDS011;56357;52.304;4.870;2023-05-16T12:06:38;6.20;;;0.60;;
69244;SDS011;56357;52.304;4.870;2023-05-16T12:09:10;6.30;;;0.63;;
69244;SDS011;56357;52.304;4.870;2023-05-16T12:11:38;5.35;;;0.90;;
69244;SDS011;56357;52.304;4.870;2023-05-16T12:14:06;6.50;;;0.80;;
69244;SDS011;56357;52.304;4.870;2023-05-16T12:16:34;4.97;;;1.10;;
69244;SDS011;56357;52.304;4.870;2023-05-16T12:19:02;5.22;;;0.75;;
69244;SDS011;56357;52.304;4.870;2023-05-16T12:21:30;5.60;;;0.75;;
69244;SDS011;56357;52.304;4.870;2023-05-16T12:23:57;7.28;;;0.80;;
69244;SDS011;56357;52.304;4.870;2023-05-16T12:26:28;5.45;;;0.93;;
69244;SDS011;56357;52.304;4.870;2023-05-16T12:28:57;7.07;;;0.70;;
69244;SDS011;56357;52.304;4.870;2023-05-16T12:31:29;5.05;;;0.80;;
69244;SDS011;56357;52.304;4.870;2023-05-16T12:34:00;4.95;;;0.57;;
69244;SDS011;56357;52.304;4.870;2023-05-16T12:36:30;5.10;;;0.82;;
69244;SDS011;56357;52.304;4.870;2023-05-16T12:39:01;4.18;;;0.70;;
69244;SDS011;56357;52.304;4.870;2023-05-16T12:41:29;6.10;;;1.10;;
69244;SDS011;56357;52.304;4.870;2023-05-16T12:44:06;5.03;;;0.98;;
69244;SDS011;56357;52.304;4.870;2023-05-16T12:46:40;5.32;;;1.20;;
69244;SDS011;56357;52.304;4.870;2023-05-16T12:49:22;4.85;;;0.73;;
69244;SDS011;56357;52.304;4.870;2023-05-16T12:51:49;7.80;;;1.42;;
69244;SDS011;56357;52.304;4.870;2023-05-16T12:54:17;5.53;;;1.00;;
69244;SDS011;56357;52.304;4.870;2023-05-16T12:56:44;5.90;;;1.15;;
69244;SDS011;56357;52.304;4.870;2023-05-16T12:59:11;5.18;;;1.02;;
69244;SDS011;56357;52.304;4.870;2023-05-16T13:01:37;8.50;;;1.10;;
69244;SDS011;56357;52.304;4.870;2023-05-16T13:04:05;6.57;;;1.30;;
69244;SDS011;56357;52.304;4.870;2023-05-16T13:06:32;4.57;;;0.97;;
69244;SDS011;56357;52.304;4.870;2023-05-16T13:08:58;4.38;;;1.13;;
69244;SDS011;56357;52.304;4.870;2023-05-16T13:11:26;8.70;;;1.20;;
69244;SDS011;56357;52.304;4.870;2023-05-16T13:13:52;7.68;;;1.27;;
69244;SDS011;56357;52.304;4.870;2023-05-16T13:16:19;4.80;;;1.10;;
69244;SDS011;56357;52.304;4.870;2023-05-16T13:18:46;5.30;;;0.80;;
69244;SDS011;56357;52.304;4.870;2023-05-16T13:21:12;4.50;;;0.90;;
69244;SDS011;56357;52.304;4.870;2023-05-16T13:23:39;4.38;;;1.00;;
69244;SDS011;56357;52.304;4.870;2023-05-16T13:26:05;5.32;;;0.90;;
69244;SDS011;56357;52.304;4.870;2023-05-16T13:28:32;7.07;;;1.67;;
69244;SDS011;56357;52.304;4.870;2023-05-16T13:30:59;4.00;;;0.70;;
69244;SDS011;56357;52.304;4.870;2023-05-16T13:33:25;4.85;;;0.95;;
69244;SDS011;56357;52.304;4.870;2023-05-16T13:35:52;6.40;;;1.35;;
69244;SDS011;56357;52.304;4.870;2023-05-16T13:38:19;7.00;;;1.27;;
69244;SDS011;56357;52.304;4.870;2023-05-16T13:40:45;6.10;;;0.90;;
69244;SDS011;56357;52.304;4.870;2023-05-16T13:43:12;4.03;;;1.13;;
69244;SDS011;56357;52.304;4.870;2023-05-16T13:45:39;4.35;;;0.90;;
69244;SDS011;56357;52.304;4.870;2023-05-16T13:48:06;7.40;;;1.50;;
69244;SDS011;56357;52.304;4.870;2023-05-16T13:50:32;4.65;;;1.10;;
69244;SDS011;56357;52.304;4.870;2023-05-16T13:52:59;4.32;;;1.17;;
69244;SDS011;56357;52.304;4.870;2023-05-16T13:55:25;4.73;;;0.60;;
69244;SDS011;56357;52.304;4.870;2023-05-16T13:57:52;4.25;;;1.00;;
69244;SDS011;56357;52.304;4.870;2023-05-16T14:00:18;5.88;;;1.25;;
69244;SDS011;56357;52.304;4.870;2023-05-16T14:02:45;6.80;;;1.35;;
69244;SDS011;56357;52.304;4.870;2023-05-16T14:05:12;5.85;;;0.80;;
69244;SDS011;56357;52.304;4.870;2023-05-16T14:07:38;5.27;;;0.90;;
69244;SDS011;56357;52.304;4.870;2023-05-16T14:10:05;9.05;;;1.23;;
69244;SDS011;56357;52.304;4.870;2023-05-16T14:12:32;6.03;;;1.00;;
69244;SDS011;56357;52.304;4.870;2023-05-16T14:14:59;5.10;;;0.93;;
69244;SDS011;56357;52.304;4.870;2023-05-16T14:17:25;4.13;;;1.27;;
69244;SDS011;56357;52.304;4.870;2023-05-16T14:19:52;8.77;;;1.00;;
69244;SDS011;56357;52.304;4.870;2023-05-16T14:22:18;7.80;;;0.90;;
69244;SDS011;56357;52.304;4.870;2023-05-16T14:24:45;5.13;;;0.85;;
69244;SDS011;56357;52.304;4.870;2023-05-16T14:38:10;9.00;;;1.35;;
69244;SDS011;56357;52.304;4.870;2023-05-16T14:40:38;8.90;;;1.00;;
69244;SDS011;56357;52.304;4.870;2023-05-16T14:43:04;6.03;;;0.80;;
69244;SDS011;56357;52.304;4.870;2023-05-16T14:45:31;6.55;;;0.80;;
69244;SDS011;56357;52.304;4.870;2023-05-16T14:47:58;5.60;;;0.67;;
69244;SDS011;56357;52.304;4.870;2023-05-16T14:50:25;4.20;;;0.70;;
69244;SDS011;56357;52.304;4.870;2023-05-16T14:52:51;4.70;;;0.68;;
69244;SDS011;56357;52.304;4.870;2023-05-16T14:55:19;4.35;;;0.85;;
69244;SDS011;56357;52.304;4.870;2023-05-16T14:57:46;4.15;;;0.80;;
69244;SDS011;56357;52.304;4.870;2023-05-16T15:00:14;5.67;;;0.80;;
69244;SDS011;56357;52.304;4.870;2023-05-16T15:02:41;7.20;;;0.82;;
69244;SDS011;56357;52.304;4.870;2023-05-16T15:05:08;9.00;;;1.10;;
69244;SDS011;56357;52.304;4.870;2023-05-16T15:07:35;7.72;;;0.60;;
69244;SDS011;56357;52.304;4.870;2023-05-16T15:10:01;6.50;;;0.93;;
69244;SDS011;56357;52.304;4.870;2023-05-16T15:12:28;6.13;;;0.90;;
69244;SDS011;56357;52.304;4.870;2023-05-16T15:14:54;5.03;;;0.50;;
69244;SDS011;56357;52.304;4.870;2023-05-16T15:17:21;9.30;;;1.15;;
69244;SDS011;56357;52.304;4.870;2023-05-16T15:19:48;5.50;;;0.80;;
69244;SDS011;56357;52.304;4.870;2023-05-16T15:22:17;5.82;;;0.50;;
69244;SDS011;56357;52.304;4.870;2023-05-16T15:24:43;7.60;;;0.60;;
69244;SDS011;56357;52.304;4.870;2023-05-16T15:27:09;9.85;;;1.10;;
69244;SDS011;56357;52.304;4.870;2023-05-16T15:29:36;14.45;;;1.17;;